AE7QG Weather Reports


Display with metric or nautical units.
time (UTC)temp
F
wind
direction
speed
MPH
gust
MPH
rain 1hr
in
rain 24hr
in
rain mn
in
humidity
%
barometer
mb
20220818130021 60 330 0.0 0.0 0.00 0.00 0.00 53 1011.9
20220818124522 60 330 0.0 0.0 0.00 0.00 0.00 53 1011.8
20220818123016 60 330 0.0 0.0 0.00 0.00 0.00 53 1011.7
20220818121516 60 330 0.0 0.0 0.00 0.00 0.00 52 1011.7
20220818120034 60 330 0.0 0.0 0.00 0.00 0.00 53 1011.6
20220818114528 59 330 0.0 0.0 0.00 0.00 0.00 54 1011.7
20220818113015 60 330 0.0 0.0 0.00 0.00 0.00 51 1011.6
20220818111525 60 330 0.0 0.0 0.00 0.00 0.00 51 1011.6
20220818110013 61 330 0.0 0.0 0.00 0.00 0.00 50 1011.7
20220818104510 61 330 0.0 0.0 0.00 0.00 0.00 49 1011.5
20220818103009 61 330 0.0 0.0 0.00 0.00 0.00 50 1011.6
20220818101508 62 330 0.0 0.0 0.00 0.00 0.00 48 1011.5
20220818100007 62 330 0.0 0.0 0.00 0.00 0.00 48 1011.6
20220818094506 62 330 0.0 0.0 0.00 0.00 0.00 47 1011.5
20220818093005 63 330 0.0 0.0 0.00 0.00 0.00 46 1011.5
20220818091600 63 330 0.0 0.0 0.00 0.00 0.00 46 1011.5
20220818090103 64 330 0.0 0.0 0.00 0.00 0.00 45 1011.3
20220818084626 64 330 0.0 0.0 0.00 0.00 0.00 45 1011.3
20220818083109 64 330 0.0 0.0 0.00 0.00 0.00 44 1011.3
20220818081633 64 330 0.0 0.0 0.00 0.00 0.00 44 1011.1
20220818080050 65 330 0.0 2.0 0.00 0.00 0.00 43 1010.9
20220818074555 65 330 1.0 2.0 0.00 0.00 0.00 42 1010.9
20220818073048 65 330 0.0 2.0 0.00 0.00 0.00 43 1010.9
20220818071547 66 330 0.0 3.0 0.00 0.00 0.00 42 1010.8
20220818070055 66 330 1.0 3.0 0.00 0.00 0.00 41 1010.8
20220818064542 67 331 1.0 2.0 0.00 0.00 0.00 39 1010.8
20220818063055 67 331 1.0 3.0 0.00 0.00 0.00 39 1010.8
20220818061540 68 331 0.0 0.0 0.00 0.00 0.00 38 1010.7
20220818060124 69 306 0.0 0.0 0.00 0.00 0.00 37 1010.5
20220818054544 69 306 0.0 0.0 0.00 0.00 0.00 36 1010.5
20220818053032 70 306 0.0 0.0 0.00 0.00 0.00 36 1010.4
20220818051632 71 306 0.0 0.0 0.00 0.00 0.00 35 1010.2
20220818050035 71 306 0.0 0.0 0.00 0.00 0.00 34 1010.1
20220818044530 72 305 0.0 0.0 0.00 0.00 0.00 33 1010.2
20220818043030 73 306 0.0 1.0 0.00 0.00 0.00 32 1010.1
20220818041603 74 305 0.0 3.0 0.00 0.00 0.00 31 1010.1
20220818040033 76 306 1.0 3.0 0.00 0.00 0.00 30 1010.0
20220818034541 78 306 2.0 5.0 0.00 0.00 0.00 28 1009.9
20220818033038 80 320 2.0 5.0 0.00 0.00 0.00 26 1009.6
20220818031526 80 327 2.0 4.0 0.00 0.00 0.00 26 1009.4
20220818030029 79 327 2.0 3.0 0.00 0.00 0.00 26 1009.1
20220818024525 80 348 1.0 3.0 0.00 0.00 0.00 27 1009.0
20220818023025 81 348 1.0 3.0 0.00 0.00 0.00 25 1008.8
20220818021527 84 348 1.0 3.0 0.00 0.00 0.00 23 1008.7
20220818020025 87 105 0.0 0.0 0.00 0.00 0.00 20 1008.7
20220818014549 91 111 1.0 3.0 0.00 0.00 0.00 17 1008.7
20220818013023 93 115 1.0 5.0 0.00 0.00 0.00 16 1008.7
20220818011536 93 189 2.0 6.0 0.00 0.00 0.00 16 1008.6
20220818010022 94 78 0.0 5.0 0.00 0.00 0.00 16 1008.6
20220818004520 93 188 3.0 9.0 0.00 0.00 0.00 15 1008.6
20220818003022 94 209 1.0 3.0 0.00 0.00 0.00 15 1008.8
20220818001527 94 198 0.0 3.0 0.00 0.00 0.00 14 1008.9
20220818000039 94 107 0.0 2.0 0.00 0.00 0.00 14 1008.9
20220817234515 94 219 1.0 4.0 0.00 0.00 0.00 14 1009.1
20220817233028 95 140 1.0 3.0 0.00 0.00 0.00 15 1009.2
20220817231529 95 124 0.0 2.0 0.00 0.00 0.00 14 1009.4
20220817230011 95 163 1.0 5.0 0.00 0.00 0.00 14 1009.6
20220817224514 97 178 2.0 5.0 0.00 0.00 0.00 13 1009.8
20220817223007 96 86 2.0 6.0 0.00 0.00 0.00 14 1010.0
20220817221507 95 92 0.0 4.0 0.00 0.00 0.00 15 1010.0
20220817220013 95 101 2.0 4.0 0.00 0.00 0.00 16 1010.3
20220817214503 95 171 2.0 4.0 0.00 0.00 0.00 18 1010.3
20220817213013 95 115 1.0 3.0 0.00 0.00 0.00 20 1010.5
20220817211503 96 150 2.0 5.0 0.00 0.00 0.00 15 1010.7
20220817210001 96 174 1.0 6.0 0.00 0.00 0.00 16 1010.8
20220817204640 96 92 2.0 6.0 0.00 0.00 0.00 14 1010.9
20220817203154 95 92 0.0 3.0 0.00 0.00 0.00 18 1010.9
20220817201602 95 196 2.0 4.0 0.00 0.00 0.00 17 1011.0
20220817200056 93 57 1.0 4.0 0.00 0.00 0.00 23 1011.2
20220817194556 92 233 2.0 6.0 0.00 0.00 0.00 23 1011.3
20220817193118 93 184 2.0 5.0 0.00 0.00 0.00 22 1011.4
20220817191552 92 207 2.0 6.0 0.00 0.00 0.00 21 1011.6
20220817190051 90 155 3.0 5.0 0.00 0.00 0.00 24 1011.8
20220817184550 90 205 2.0 6.0 0.00 0.00 0.00 27 1011.9
20220817183058 88 172 2.0 5.0 0.00 0.00 0.00 24 1012.3
20220817181549 87 159 2.0 6.0 0.00 0.00 0.00 25 1012.4
20220817180047 85 114 1.0 6.0 0.00 0.00 0.00 29 1012.7
20220817174624 83 57 2.0 6.0 0.00 0.00 0.00 29 1013.0
20220817173043 81 223 2.0 5.0 0.00 0.00 0.00 31 1013.2
20220817171544 80 118 1.0 5.0 0.00 0.00 0.00 31 1013.3
20220817170039 78 129 1.0 3.0 0.00 0.00 0.00 33 1013.4
20220817164532 76 182 0.0 3.0 0.00 0.00 0.00 35 1013.6
20220817163103 75 173 1.0 4.0 0.00 0.00 0.00 37 1013.7
20220817161538 73 155 1.0 5.0 0.00 0.00 0.00 38 1013.8
20220817160020 71 110 2.0 6.0 0.00 0.00 0.00 39 1013.8
20220817154537 70 165 0.0 3.0 0.00 0.00 0.00 40 1013.9
20220817153020 68 182 1.0 3.0 0.00 0.00 0.00 42 1014.0
20220817151512 67 160 2.0 3.0 0.00 0.00 0.00 43 1014.1
20220817150015 66 157 0.0 3.0 0.00 0.00 0.00 45 1013.9
20220817144514 65 5 0.0 0.0 0.00 0.00 0.00 48 1013.8
20220817143026 62 5 0.0 0.0 0.00 0.00 0.00 53 1013.8
20220817141514 61 5 0.0 0.0 0.00 0.00 0.00 56 1013.9
20220817140005 58 5 0.0 0.0 0.00 0.00 0.00 58 1013.8
20220817134509 57 5 0.0 0.0 0.00 0.00 0.00 58 1013.7
20220817133002 55 5 0.0 0.0 0.00 0.00 0.00 60 1013.6
20220817131502 55 5 0.0 0.0 0.00 0.00 0.00 58 1013.5